Time;durP1;ratioP1;P1;durP2;ratioP2;P2;SDS_P1;SDS_P2;PMS_P1;PMS_P2;Temp;Humidity;BMP_temperature;BMP_pressure;BME280_temperature;BME280_humidity;BME280_pressure;Samples;Min_cycle;Max_cycle;Signal;HPM_P1;HPM_P2
2022/08/05 00:00:09;;;;;;;0.50;0.40;;;18.50;99.90;;;;;;5052208;28;20483;-73
2022/08/05 00:02:36;;;;;;;0.50;0.30;;;18.50;99.90;;;;;;5051509;28;20451;-75
2022/08/05 00:05:04;;;;;;;0.50;0.40;;;18.50;99.90;;;;;;5052135;28;20556;-76
2022/08/05 00:07:31;;;;;;;0.50;0.40;;;18.50;99.90;;;;;;5051927;28;20958;-76
2022/08/05 00:09:57;;;;;;;0.50;0.30;;;18.50;99.90;;;;;;5052501;28;20966;-76
2022/08/05 00:12:24;;;;;;;0.50;0.40;;;18.40;99.90;;;;;;5051504;28;20483;-75
2022/08/05 00:14:52;;;;;;;0.50;0.30;;;18.40;99.90;;;;;;5051812;28;20543;-77
2022/08/05 00:17:19;;;;;;;0.50;0.40;;;18.40;99.90;;;;;;5051854;28;20441;-75
2022/08/05 00:19:46;;;;;;;0.50;0.40;;;18.40;99.90;;;;;;5052106;28;20504;-76
2022/08/05 00:22:13;;;;;;;0.50;0.40;;;18.40;99.90;;;;;;5051611;28;20560;-75
2022/08/05 00:24:40;;;;;;;0.50;0.40;;;18.40;99.90;;;;;;5052016;28;20573;-76
2022/08/05 00:27:07;;;;;;;0.50;0.30;;;18.40;99.90;;;;;;5052013;28;20955;-75
2022/08/05 00:29:34;;;;;;;0.50;0.30;;;18.40;99.90;;;;;;5051601;28;20441;-76
2022/08/05 00:32:04;;;;;;;0.50;0.30;;;18.40;99.90;;;;;;5051560;28;21000;-76
2022/08/05 00:34:31;;;;;;;0.50;0.30;;;18.40;99.90;;;;;;5051726;28;20461;-75
2022/08/05 00:36:58;;;;;;;0.50;0.40;;;18.40;99.90;;;;;;5051232;28;20488;-76
2022/08/05 00:39:25;;;;;;;0.50;0.30;;;18.40;99.90;;;;;;5051651;28;20516;-76
2022/08/05 00:41:51;;;;;;;0.50;0.30;;;18.40;99.90;;;;;;5051701;28;20477;-76
2022/08/05 00:44:18;;;;;;;0.50;0.30;;;18.50;99.90;;;;;;5051581;28;20437;-76
2022/08/05 00:46:45;;;;;;;0.50;0.40;;;18.50;99.90;;;;;;5051407;28;20535;-76
2022/08/05 00:49:13;;;;;;;0.50;0.40;;;18.50;99.90;;;;;;5051022;28;20554;-75
2022/08/05 00:51:40;;;;;;;0.50;0.40;;;18.50;99.90;;;;;;5051516;28;20487;-74
2022/08/05 00:54:07;;;;;;;0.50;0.30;;;18.50;99.90;;;;;;5051312;28;20533;-75
2022/08/05 00:56:34;;;;;;;0.50;0.30;;;18.50;99.90;;;;;;5051787;28;20436;-76
2022/08/05 00:59:01;;;;;;;0.50;0.40;;;18.50;99.90;;;;;;5051115;28;20588;-75
2022/08/05 01:01:28;;;;;;;0.50;0.30;;;18.40;99.90;;;;;;5050704;28;20456;-75
2022/08/05 01:03:55;;;;;;;0.50;0.40;;;18.40;99.90;;;;;;5051416;28;20451;-76
2022/08/05 01:06:23;;;;;;;0.50;0.40;;;18.40;99.90;;;;;;5051603;28;20546;-76
2022/08/05 01:08:50;;;;;;;0.50;0.40;;;18.40;99.90;;;;;;5051094;28;21148;-76
2022/08/05 01:11:21;;;;;;;0.50;0.40;;;18.40;99.90;;;;;;5050946;28;20998;-75
2022/08/05 01:13:57;;;;;;;0.50;0.30;;;18.40;99.90;;;;;;5050776;28;20532;-73
2022/08/05 01:16:30;;;;;;;0.50;0.40;;;18.40;99.90;;;;;;5053553;28;20489;-75
2022/08/05 01:19:02;;;;;;;0.50;0.30;;;18.30;99.90;;;;;;5055292;28;20457;-75
2022/08/05 01:21:50;;;;;;;0.50;0.30;;;18.20;99.90;;;;;;5055364;28;20528;-74
2022/08/05 01:24:31;;;;;;;0.50;0.30;;;18.10;99.90;;;;;;5055200;28;20446;-76
2022/08/05 01:27:06;;;;;;;0.50;0.30;;;18.10;99.90;;;;;;5055350;28;20540;-76
2022/08/05 01:29:37;;;;;;;0.50;0.30;;;18.10;99.90;;;;;;5054890;28;20503;-76
2022/08/05 01:32:09;;;;;;;1.27;0.50;;;18.20;99.90;;;;;;5055347;28;20835;-75
2022/08/05 01:34:41;;;;;;;0.50;0.30;;;18.20;99.90;;;;;;5054556;28;20894;-76
2022/08/05 01:37:14;;;;;;;0.50;0.40;;;18.20;99.90;;;;;;5055148;28;20498;-76
2022/08/05 01:39:44;;;;;;;0.50;0.40;;;18.20;99.90;;;;;;5055092;28;20481;-75
2022/08/05 01:42:14;;;;;;;0.50;0.30;;;18.20;99.90;;;;;;5054913;28;20441;-74
2022/08/05 01:44:43;;;;;;;0.50;0.30;;;18.20;99.90;;;;;;5054529;28;20539;-76
2022/08/05 01:47:11;;;;;;;0.50;0.30;;;18.10;99.90;;;;;;5054689;28;20444;-75
2022/08/05 01:49:41;;;;;;;0.50;0.40;;;18.10;99.90;;;;;;5054819;28;20531;-74
2022/08/05 01:52:10;;;;;;;1.53;0.80;;;18.10;99.90;;;;;;5054632;28;20539;-76
2022/08/05 01:54:43;;;;;;;0.50;0.40;;;18.10;99.90;;;;;;5054258;28;20981;-76
2022/08/05 01:57:11;;;;;;;1.57;1.57;;;18.20;99.90;;;;;;5055051;28;20854;-76
2022/08/05 01:59:40;;;;;;;0.50;0.40;;;18.10;99.90;;;;;;5054370;28;20559;-76
2022/08/05 02:02:11;;;;;;;0.50;0.30;;;18.10;99.90;;;;;;5054770;28;20456;-76
2022/08/05 02:04:40;;;;;;;0.50;0.40;;;18.10;99.90;;;;;;5054280;28;20460;-76
2022/08/05 02:07:07;;;;;;;0.50;0.30;;;18.20;99.90;;;;;;5054447;28;20528;-75
2022/08/05 02:09:34;;;;;;;0.60;0.40;;;18.20;99.90;;;;;;5054350;28;20523;-76
2022/08/05 02:12:06;;;;;;;0.50;0.30;;;18.20;99.90;;;;;;5054057;28;20536;-76
2022/08/05 02:14:39;;;;;;;0.50;0.30;;;18.20;99.90;;;;;;5053839;28;20463;-75
2022/08/05 02:17:11;;;;;;;0.50;0.30;;;18.20;99.90;;;;;;5054260;28;20433;-74
2022/08/05 02:19:46;;;;;;;0.50;0.30;;;18.20;99.90;;;;;;5054585;28;20560;-76
2022/08/05 02:22:17;;;;;;;0.60;0.50;;;18.20;99.90;;;;;;5053994;28;20495;-74
2022/08/05 02:24:49;;;;;;;0.50;0.30;;;18.20;99.90;;;;;;5054135;28;20484;-75
2022/08/05 02:27:19;;;;;;;0.50;0.30;;;18.30;99.90;;;;;;5053879;28;20536;-76
2022/08/05 02:29:48;;;;;;;0.50;0.40;;;18.30;99.90;;;;;;5053900;28;20525;-76
2022/08/05 02:32:20;;;;;;;0.50;0.40;;;18.20;99.90;;;;;;5053864;28;20864;-76
2022/08/05 02:34:47;;;;;;;0.50;0.30;;;18.20;99.90;;;;;;5053962;28;20480;-75
2022/08/05 02:37:16;;;;;;;0.50;0.33;;;18.20;99.90;;;;;;5054058;28;20524;-75
2022/08/05 02:39:45;;;;;;;0.50;0.30;;;18.10;99.90;;;;;;5053549;28;20564;-75
2022/08/05 02:42:14;;;;;;;0.50;0.30;;;18.10;99.90;;;;;;5053248;28;20433;-72
2022/08/05 02:44:41;;;;;;;0.50;0.30;;;18.10;99.90;;;;;;5053683;28;20571;-75
2022/08/05 02:47:10;;;;;;;0.50;0.30;;;18.10;99.90;;;;;;5053511;28;20441;-75
2022/08/05 02:49:41;;;;;;;0.50;0.37;;;18.10;99.90;;;;;;5053988;28;20528;-76
2022/08/05 02:52:11;;;;;;;0.50;0.30;;;18.10;99.90;;;;;;5053508;28;20776;-76
2022/08/05 02:54:39;;;;;;;0.50;0.30;;;18.10;99.90;;;;;;5053653;28;20457;-75
2022/08/05 02:57:10;;;;;;;0.50;0.30;;;18.10;99.90;;;;;;5053304;28;20477;-74
2022/08/05 02:59:37;;;;;;;0.50;0.40;;;17.90;99.90;;;;;;5053153;28;20552;-76
2022/08/05 03:02:05;;;;;;;0.50;0.30;;;17.90;99.90;;;;;;5053044;28;20475;-76
2022/08/05 03:04:34;;;;;;;0.50;0.40;;;18.00;99.90;;;;;;5053337;28;20560;-76
2022/08/05 03:07:03;;;;;;;0.50;0.30;;;17.70;99.90;;;;;;5053338;28;21010;-76
2022/08/05 03:09:30;;;;;;;0.50;0.37;;;17.70;99.90;;;;;;5053299;28;20520;-75
2022/08/05 03:11:57;;;;;;;0.50;0.40;;;17.70;99.90;;;;;;5052622;28;20519;-75
2022/08/05 03:14:24;;;;;;;0.50;0.40;;;17.60;99.90;;;;;;5052288;28;20453;-76
2022/08/05 03:16:50;;;;;;;0.50;0.40;;;17.50;99.90;;;;;;5053185;28;20437;-76
2022/08/05 03:19:17;;;;;;;0.60;0.60;;;17.50;99.90;;;;;;5070730;22;20452;-76
2022/08/05 03:21:44;;;;;;;0.50;0.50;;;17.60;99.90;;;;;;5041325;28;20556;-77
2022/08/05 03:24:13;;;;;;;0.50;0.30;;;17.60;99.90;;;;;;5044478;28;20524;-77
2022/08/05 03:26:40;;;;;;;0.60;0.40;;;17.60;99.90;;;;;;5053311;28;20429;-77
2022/08/05 03:29:06;;;;;;;1.27;1.00;;;17.60;99.90;;;;;;5053092;28;20520;-76
2022/08/05 03:31:34;;;;;;;0.50;0.30;;;17.50;99.90;;;;;;5052532;28;20504;-77
2022/08/05 03:34:01;;;;;;;0.50;0.40;;;17.50;99.90;;;;;;5053121;28;20469;-77
2022/08/05 03:36:28;;;;;;;0.57;0.53;;;17.50;99.90;;;;;;5053028;28;20529;-77
2022/08/05 03:38:54;;;;;;;0.50;0.40;;;17.50;99.90;;;;;;5052403;28;20792;-77
2022/08/05 03:41:23;;;;;;;0.50;0.40;;;17.50;99.90;;;;;;5052750;28;20542;-76
2022/08/05 03:43:50;;;;;;;0.50;0.40;;;17.50;99.90;;;;;;5052931;28;20437;-77
2022/08/05 03:46:16;;;;;;;0.50;0.30;;;17.50;99.90;;;;;;5052377;28;20443;-77
2022/08/05 03:48:43;;;;;;;0.50;0.33;;;17.50;99.90;;;;;;5052767;28;21051;-77
2022/08/05 03:51:13;;;;;;;0.50;0.30;;;17.50;99.90;;;;;;5052467;28;21073;-77
2022/08/05 03:53:49;;;;;;;0.50;0.30;;;17.50;99.90;;;;;;5052567;28;20436;-77
2022/08/05 03:56:31;;;;;;;0.50;0.40;;;17.60;99.90;;;;;;5052717;28;20456;-77
2022/08/05 03:59:03;;;;;;;0.50;0.37;;;17.70;99.90;;;;;;5053383;28;20472;-77
2022/08/05 04:01:32;;;;;;;0.60;0.50;;;17.70;99.90;;;;;;5053231;28;20476;-77
2022/08/05 04:04:00;;;;;;;0.50;0.30;;;17.70;99.90;;;;;;5054184;28;20469;-78
2022/08/05 04:06:28;;;;;;;0.50;0.30;;;17.70;99.90;;;;;;5054095;28;20468;-77
2022/08/05 04:08:55;;;;;;;1.90;1.80;;;17.80;99.90;;;;;;5052320;28;20445;-77
2022/08/05 04:11:22;;;;;;;2.10;0.87;;;17.90;99.90;;;;;;5052246;28;20560;-76
2022/08/05 04:13:50;;;;;;;0.90;0.90;;;17.90;99.90;;;;;;5051789;28;20444;-75
2022/08/05 04:16:19;;;;;;;0.97;0.97;;;17.90;99.90;;;;;;5052136;28;20476;-76
2022/08/05 04:18:46;;;;;;;0.57;0.50;;;17.80;99.90;;;;;;5052093;28;20563;-77
2022/08/05 04:21:13;;;;;;;1.00;0.93;;;17.90;99.90;;;;;;5052030;28;20465;-76
2022/08/05 04:23:40;;;;;;;0.50;0.40;;;17.90;99.90;;;;;;5051901;28;20437;-77
2022/08/05 04:26:07;;;;;;;2.10;2.00;;;17.90;99.90;;;;;;5052407;28;20874;-77
2022/08/05 04:28:34;;;;;;;0.50;0.40;;;17.90;99.90;;;;;;5051675;28;20870;-76
2022/08/05 04:31:01;;;;;;;0.50;0.30;;;17.90;99.90;;;;;;5051562;28;20950;-77
2022/08/05 04:33:29;;;;;;;1.27;1.27;;;17.90;99.90;;;;;;5052204;28;20526;-77
2022/08/05 04:35:56;;;;;;;0.50;0.30;;;17.90;99.90;;;;;;5053179;28;20441;-77
2022/08/05 04:38:23;;;;;;;0.50;0.40;;;17.80;99.90;;;;;;5052501;28;20544;-76
2022/08/05 04:40:50;;;;;;;0.50;0.30;;;17.80;99.90;;;;;;5052663;28;20453;-76
2022/08/05 04:43:17;;;;;;;0.50;0.40;;;17.80;99.90;;;;;;5051726;28;20527;-77
2022/08/05 04:45:44;;;;;;;0.50;0.30;;;17.80;99.90;;;;;;5051882;28;20528;-77
2022/08/05 04:48:12;;;;;;;0.50;0.37;;;17.80;99.90;;;;;;5051946;28;20444;-77
2022/08/05 04:50:43;;;;;;;0.50;0.30;;;17.80;99.90;;;;;;5050903;28;20468;-77
2022/08/05 04:53:11;;;;;;;0.50;0.30;;;17.90;99.90;;;;;;5051877;28;20824;-75
2022/08/05 04:55:38;;;;;;;0.50;0.30;;;17.90;99.90;;;;;;5051029;28;20437;-77
2022/08/05 04:58:06;;;;;;;0.50;0.30;;;17.90;99.90;;;;;;5052544;28;20529;-78
2022/08/05 05:00:33;;;;;;;0.50;0.30;;;17.90;99.90;;;;;;5052250;28;20540;-76
2022/08/05 05:03:00;;;;;;;3.83;3.53;;;17.90;99.90;;;;;;5051748;28;20449;-78
2022/08/05 05:05:27;;;;;;;0.50;0.40;;;17.90;99.90;;;;;;5051894;28;20500;-75
2022/08/05 05:07:59;;;;;;;1.63;1.53;;;17.90;99.90;;;;;;5051599;28;20473;-78
2022/08/05 05:10:26;;;;;;;0.50;0.30;;;17.90;99.90;;;;;;5051102;28;21037;-77
2022/08/05 05:12:53;;;;;;;0.50;0.40;;;17.90;99.90;;;;;;5051593;28;20445;-77
2022/08/05 05:15:20;;;;;;;0.50;0.40;;;17.90;99.90;;;;;;5050902;28;20508;-77
2022/08/05 05:17:46;;;;;;;0.50;0.30;;;17.90;99.90;;;;;;5052068;28;20536;-76
2022/08/05 05:20:14;;;;;;;0.50;0.30;;;17.90;99.90;;;;;;5051544;28;20499;-76
2022/08/05 05:22:41;;;;;;;0.93;0.93;;;17.90;99.90;;;;;;5051776;28;20480;-77
2022/08/05 05:25:11;;;;;;;1.03;0.93;;;17.90;99.90;;;;;;5051968;28;20441;-77
2022/08/05 05:27:38;;;;;;;0.67;0.67;;;17.90;99.90;;;;;;5052449;28;20934;-77
2022/08/05 05:30:06;;;;;;;0.50;0.30;;;17.90;99.90;;;;;;5055515;28;20460;-76
2022/08/05 05:32:33;;;;;;;0.50;0.30;;;17.90;99.90;;;;;;5051838;28;20510;-77
2022/08/05 05:35:00;;;;;;;0.50;0.40;;;17.80;99.90;;;;;;5051759;28;20479;-76
2022/08/05 05:37:27;;;;;;;0.50;0.30;;;17.80;99.90;;;;;;5050970;28;20520;-76
2022/08/05 05:39:54;;;;;;;0.67;0.67;;;17.90;99.90;;;;;;5050628;28;20497;-76
2022/08/05 05:42:22;;;;;;;0.50;0.40;;;18.00;99.90;;;;;;5051435;28;20532;-78
2022/08/05 05:44:49;;;;;;;0.50;0.30;;;17.90;99.90;;;;;;5051105;28;20533;-76
2022/08/05 05:47:16;;;;;;;0.70;0.70;;;17.90;99.90;;;;;;5050445;28;20481;-74
2022/08/05 05:49:42;;;;;;;0.50;0.30;;;18.00;99.90;;;;;;5050702;28;20456;-77
2022/08/05 05:52:09;;;;;;;3.80;3.23;;;18.00;99.90;;;;;;5050417;28;20487;-76
2022/08/05 05:54:36;;;;;;;0.50;0.30;;;18.00;99.90;;;;;;5051048;28;20432;-77
2022/08/05 05:57:03;;;;;;;0.50;0.40;;;18.00;99.90;;;;;;5051450;28;20476;-76
2022/08/05 05:59:32;;;;;;;0.50;0.40;;;18.00;99.90;;;;;;5052242;28;20548;-76
2022/08/05 06:01:58;;;;;;;0.83;0.83;;;18.00;99.90;;;;;;5051750;28;20487;-77
2022/08/05 06:04:25;;;;;;;0.50;0.40;;;18.00;99.90;;;;;;5055350;28;20437;-76
2022/08/05 06:06:52;;;;;;;2.97;2.80;;;18.00;99.90;;;;;;5054860;28;20480;-76
2022/08/05 06:09:19;;;;;;;0.70;0.70;;;17.90;99.90;;;;;;5056617;28;20862;-77
2022/08/05 06:11:46;;;;;;;0.50;0.30;;;17.90;99.90;;;;;;5055163;28;20575;-77
2022/08/05 06:14:13;;;;;;;0.50;0.37;;;17.90;99.90;;;;;;5054376;28;20957;-77
2022/08/05 06:16:41;;;;;;;0.50;0.30;;;17.80;99.90;;;;;;5054259;28;20518;-76
2022/08/05 06:19:08;;;;;;;0.60;0.40;;;17.80;99.90;;;;;;5054809;28;20472;-77
2022/08/05 06:21:36;;;;;;;0.67;0.67;;;17.80;99.90;;;;;;5053870;28;20481;-77
2022/08/05 06:24:04;;;;;;;0.50;0.30;;;17.70;99.90;;;;;;5054539;28;20494;-76
2022/08/05 06:26:31;;;;;;;1.30;1.10;;;17.70;99.90;;;;;;5054141;28;20532;-76
2022/08/05 06:28:57;;;;;;;0.50;0.40;;;17.70;99.90;;;;;;5053925;28;20559;-76
2022/08/05 06:31:24;;;;;;;0.70;0.70;;;17.70;99.90;;;;;;5054629;28;20492;-77
2022/08/05 06:33:52;;;;;;;0.50;0.30;;;17.70;99.90;;;;;;5056775;28;20441;-77
2022/08/05 06:36:19;;;;;;;0.70;0.70;;;17.60;99.90;;;;;;5056344;28;20531;-78
2022/08/05 06:38:46;;;;;;;0.50;0.50;;;17.60;99.90;;;;;;5054440;28;20463;-76
2022/08/05 06:41:13;;;;;;;0.50;0.30;;;17.50;99.90;;;;;;5053765;28;20519;-76
2022/08/05 06:43:40;;;;;;;0.50;0.30;;;17.40;99.90;;;;;;5053752;28;20548;-75
2022/08/05 06:46:07;;;;;;;0.63;0.60;;;17.40;99.90;;;;;;5055184;28;20445;-76
2022/08/05 06:48:33;;;;;;;0.50;0.40;;;17.40;99.90;;;;;;5054072;28;20532;-76
2022/08/05 06:51:03;;;;;;;0.50;0.30;;;17.40;99.90;;;;;;5053527;28;20559;-76
2022/08/05 06:53:30;;;;;;;0.50;0.33;;;17.40;99.90;;;;;;5053240;28;20472;-77
2022/08/05 06:55:58;;;;;;;0.50;0.40;;;17.30;99.90;;;;;;5055654;28;20493;-76
2022/08/05 06:58:26;;;;;;;0.50;0.30;;;17.30;99.90;;;;;;5053884;28;20459;-76
2022/08/05 07:00:53;;;;;;;0.50;0.30;;;17.40;99.90;;;;;;5053447;28;20998;-75
2022/08/05 07:03:20;;;;;;;0.73;0.67;;;17.40;99.90;;;;;;5053266;28;20476;-75
2022/08/05 07:05:46;;;;;;;0.80;0.63;;;17.40;99.90;;;;;;5053402;28;20536;-76
2022/08/05 07:08:15;;;;;;;0.73;0.73;;;17.40;99.90;;;;;;5053502;28;20528;-76
2022/08/05 07:10:42;;;;;;;0.50;0.30;;;17.30;99.90;;;;;;5053000;28;20487;-76
2022/08/05 07:18:37;;;;;;;0.50;0.30;;;17.40;99.90;;;;;;5053149;28;20397;-76
2022/08/05 07:21:06;;;;;;;0.50;0.30;;;17.50;99.90;;;;;;5052825;28;20545;-76
2022/08/05 07:23:35;;;;;;;0.50;0.30;;;17.50;99.90;;;;;;5052162;28;20452;-76
2022/08/05 07:26:01;;;;;;;1.23;1.13;;;17.50;99.90;;;;;;5052953;28;20441;-76
2022/08/05 07:28:28;;;;;;;0.50;0.40;;;17.40;99.90;;;;;;5052403;28;20535;-76
2022/08/05 07:30:55;;;;;;;0.60;0.60;;;17.50;99.90;;;;;;5052712;28;20568;-76
2022/08/05 07:33:22;;;;;;;0.50;0.30;;;17.40;99.90;;;;;;5052932;28;20520;-76
2022/08/05 07:35:49;;;;;;;0.50;0.40;;;17.50;99.90;;;;;;5052477;28;20448;-76
2022/08/05 07:38:17;;;;;;;0.50;0.30;;;17.50;99.90;;;;;;5052929;28;20444;-75
2022/08/05 07:40:46;;;;;;;0.50;0.30;;;17.50;99.90;;;;;;5052334;28;20460;-76
2022/08/05 07:43:13;;;;;;;1.03;0.90;;;17.50;99.90;;;;;;5053491;28;20468;-77
2022/08/05 07:45:42;;;;;;;0.50;0.40;;;17.50;99.90;;;;;;5053285;28;20864;-77
2022/08/05 07:48:09;;;;;;;0.50;0.40;;;17.30;99.90;;;;;;5052623;28;20532;-76
2022/08/05 07:50:35;;;;;;;1.53;0.83;;;17.20;99.90;;;;;;5052239;28;20468;-75
2022/08/05 07:53:02;;;;;;;0.50;0.30;;;17.10;99.90;;;;;;5052047;28;20437;-76
2022/08/05 07:55:30;;;;;;;0.50;0.30;;;17.00;99.90;;;;;;5052001;28;20528;-76
2022/08/05 07:57:58;;;;;;;0.50;0.40;;;17.10;99.90;;;;;;5052282;28;20473;-76
2022/08/05 08:00:25;;;;;;;0.50;0.40;;;17.10;99.90;;;;;;5052338;28;20556;-76
2022/08/05 08:02:52;;;;;;;0.97;0.97;;;17.10;99.90;;;;;;5051851;28;20494;-76
2022/08/05 08:05:19;;;;;;;0.50;0.30;;;17.10;99.90;;;;;;5052014;28;20472;-75
2022/08/05 08:07:46;;;;;;;0.50;0.40;;;17.10;99.90;;;;;;5052036;28;20437;-76
2022/08/05 08:10:13;;;;;;;0.60;0.60;;;17.20;99.90;;;;;;5052271;28;20545;-76
2022/08/05 08:12:40;;;;;;;0.50;0.40;;;17.20;99.90;;;;;;5051344;28;21044;-76
2022/08/05 08:15:10;;;;;;;0.50;0.33;;;17.20;99.90;;;;;;5052153;28;20528;-76
2022/08/05 08:17:37;;;;;;;0.50;0.30;;;17.20;99.90;;;;;;5052686;28;20487;-77
2022/08/05 08:20:05;;;;;;;0.50;0.40;;;17.20;99.90;;;;;;5052638;28;20469;-76
2022/08/05 08:22:32;;;;;;;0.50;0.30;;;17.20;99.90;;;;;;5051889;28;20494;-76
2022/08/05 08:25:00;;;;;;;0.60;0.50;;;17.20;99.90;;;;;;5051904;28;20532;-76
2022/08/05 08:27:26;;;;;;;0.50;0.30;;;17.10;99.90;;;;;;5051836;28;20441;-75
2022/08/05 08:29:53;;;;;;;0.50;0.30;;;17.20;99.90;;;;;;5051756;28;20889;-76
2022/08/05 08:32:21;;;;;;;0.50;0.30;;;17.30;99.90;;;;;;5051744;28;20560;-76
2022/08/05 08:34:48;;;;;;;0.50;0.30;;;17.20;99.90;;;;;;5051635;28;20535;-76
2022/08/05 08:37:15;;;;;;;0.50;0.37;;;17.20;99.90;;;;;;5052094;28;20445;-76
2022/08/05 08:39:42;;;;;;;0.50;0.30;;;17.10;99.90;;;;;;5051742;28;20556;-76
2022/08/05 08:42:10;;;;;;;0.50;0.40;;;17.10;99.90;;;;;;5051898;28;20532;-72
2022/08/05 08:44:39;;;;;;;0.50;0.40;;;17.20;99.90;;;;;;5051418;28;20437;-75
2022/08/05 08:47:07;;;;;;;0.50;0.40;;;17.30;99.90;;;;;;5051532;28;20896;-77
2022/08/05 08:49:38;;;;;;;0.50;0.40;;;17.40;99.90;;;;;;5051685;28;20465;-77
2022/08/05 08:52:12;;;;;;;0.50;0.30;;;17.40;99.90;;;;;;5051962;28;21013;-76
2022/08/05 08:54:39;;;;;;;0.50;0.30;;;17.40;99.90;;;;;;5051896;28;20444;-77
2022/08/05 08:57:07;;;;;;;0.50;0.30;;;17.40;99.90;;;;;;5052032;28;21142;-77
2022/08/05 08:59:35;;;;;;;0.50;0.30;;;17.50;99.90;;;;;;5051155;28;20467;-77
2022/08/05 09:02:06;;;;;;;0.50;0.30;;;17.40;99.90;;;;;;5051490;28;20468;-77
2022/08/05 09:04:36;;;;;;;0.50;0.30;;;17.50;99.90;;;;;;5051512;28;20441;-80
2022/08/05 09:07:05;;;;;;;0.50;0.30;;;17.60;99.90;;;;;;5051508;28;20448;-76
2022/08/05 09:09:33;;;;;;;3.37;1.03;;;17.70;99.90;;;;;;5051460;28;20875;-76
2022/08/05 09:12:00;;;;;;;0.60;0.50;;;17.70;99.90;;;;;;5051094;28;20564;-77
2022/08/05 09:14:27;;;;;;;0.50;0.40;;;17.70;99.90;;;;;;5051573;28;20942;-76
2022/08/05 09:16:54;;;;;;;1.17;0.70;;;17.70;99.90;;;;;;5052556;28;20445;-77
2022/08/05 09:19:21;;;;;;;0.50;0.30;;;17.60;99.90;;;;;;5050652;28;20540;-75
2022/08/05 09:21:49;;;;;;;0.50;0.30;;;17.70;99.90;;;;;;5086696;22;20488;-77
2022/08/05 09:24:16;;;;;;;0.50;0.40;;;17.80;99.90;;;;;;5056763;28;20516;-77
2022/08/05 09:26:49;;;;;;;0.50;0.30;;;17.90;99.90;;;;;;5051016;28;20872;-77
2022/08/05 09:29:16;;;;;;;0.50;0.40;;;17.90;99.90;;;;;;5051147;28;20529;-78
2022/08/05 09:31:43;;;;;;;0.50;0.30;;;18.00;99.90;;;;;;5050232;28;20568;-77
2022/08/05 09:34:12;;;;;;;0.50;0.30;;;18.10;99.90;;;;;;5050675;28;20444;-77
2022/08/05 09:36:44;;;;;;;0.50;0.30;;;18.20;99.90;;;;;;5051637;28;20436;-77
2022/08/05 09:39:13;;;;;;;0.50;0.30;;;18.30;99.90;;;;;;5054802;28;20459;-77
2022/08/05 09:41:57;;;;;;;0.50;0.40;;;18.30;99.90;;;;;;5054327;28;20481;-78
2022/08/05 09:44:34;;;;;;;0.50;0.40;;;18.40;99.90;;;;;;5054644;28;20437;-77
2022/08/05 09:47:10;;;;;;;0.50;0.30;;;18.40;99.90;;;;;;5054963;28;20491;-77
2022/08/05 09:49:41;;;;;;;0.50;0.30;;;18.40;99.90;;;;;;5055549;28;20901;-78
2022/08/05 09:52:19;;;;;;;0.50;0.30;;;18.50;99.90;;;;;;5054094;28;20472;-76
2022/08/05 09:54:59;;;;;;;0.50;0.40;;;18.60;99.90;;;;;;5054783;28;20868;-78
2022/08/05 09:57:35;;;;;;;0.50;0.30;;;18.50;99.90;;;;;;5054665;28;20877;-77
2022/08/05 10:00:10;;;;;;;0.50;0.40;;;18.40;99.90;;;;;;5054430;28;20471;-78
2022/08/05 10:02:39;;;;;;;0.50;0.30;;;18.60;99.90;;;;;;5054189;28;20425;-78
2022/08/05 10:05:09;;;;;;;0.50;0.40;;;18.80;99.90;;;;;;5054861;28;20436;-78
2022/08/05 10:07:47;;;;;;;0.50;0.30;;;19.10;99.90;;;;;;5054460;28;20451;-78
2022/08/05 10:10:17;;;;;;;0.50;0.30;;;19.50;99.90;;;;;;5054668;28;20539;-77
2022/08/05 10:12:45;;;;;;;0.50;0.30;;;19.60;99.90;;;;;;5053993;28;20697;-77
2022/08/05 10:15:31;;;;;;;0.50;0.40;;;19.90;99.90;;;;;;5061187;28;20442;-77
2022/08/05 10:18:10;;;;;;;1.87;1.40;;;20.20;99.90;;;;;;5059564;28;20432;-78
2022/08/05 10:20:40;;;;;;;0.50;0.30;;;20.20;99.90;;;;;;5053785;28;20908;-78
2022/08/05 10:23:07;;;;;;;1.93;1.33;;;20.50;99.90;;;;;;5054052;28;20753;-78
2022/08/05 10:25:36;;;;;;;0.50;0.30;;;21.00;99.90;;;;;;5054842;28;20476;-78
2022/08/05 10:28:03;;;;;;;1.20;0.53;;;21.40;99.90;;;;;;5054454;28;20433;-77
2022/08/05 10:30:30;;;;;;;0.50;0.40;;;21.70;99.90;;;;;;5053352;28;20536;-78
2022/08/05 10:32:58;;;;;;;0.50;0.40;;;22.10;99.90;;;;;;5053151;28;20477;-77
2022/08/05 10:35:26;;;;;;;2.27;2.17;;;22.50;99.90;;;;;;5053663;28;20441;-77
2022/08/05 10:37:53;;;;;;;0.50;0.40;;;23.10;99.90;;;;;;5053889;28;20447;-77
2022/08/05 10:40:27;;;;;;;0.50;0.30;;;23.60;99.90;;;;;;5054097;28;20818;-78
2022/08/05 10:43:09;;;;;;;0.50;0.30;;;24.30;99.90;;;;;;5053340;28;20416;-76
2022/08/05 10:45:36;;;;;;;0.50;0.37;;;24.70;99.90;;;;;;5053510;28;20483;-77
2022/08/05 10:48:30;;;;;;;0.50;0.30;;;24.90;99.90;;;;;;5052781;28;20434;-77
2022/08/05 10:50:59;;;;;;;0.50;0.30;;;25.20;99.90;;;;;;5052965;28;20992;-77
2022/08/05 10:53:44;;;;;;;0.50;0.30;;;25.60;99.90;;;;;;5053799;28;20841;-78
2022/08/05 10:56:14;;;;;;;0.50;0.30;;;26.20;99.90;;;;;;5053006;28;20504;-77
2022/08/05 10:59:06;;;;;;;0.70;0.50;;;26.90;99.90;;;;;;5053788;28;20794;-76
2022/08/05 11:01:35;;;;;;;0.50;0.30;;;27.30;99.90;;;;;;5038448;28;20909;-78
2022/08/05 11:04:05;;;;;;;0.50;0.30;;;28.40;99.90;;;;;;5053209;28;20495;-77
2022/08/05 11:06:33;;;;;;;0.50;0.30;;;29.40;99.90;;;;;;5053274;28;20472;-78
2022/08/05 11:09:17;;;;;;;0.50;0.40;;;30.50;99.90;;;;;;5054223;28;20537;-76
2022/08/05 11:11:45;;;;;;;0.50;0.30;;;31.00;96.50;;;;;;5072173;28;20543;-76
2022/08/05 11:14:22;;;;;;;1.27;0.60;;;31.50;99.90;;;;;;5073210;28;20493;-75
2022/08/05 11:17:22;;;;;;;0.50;0.40;;;30.60;90.80;;;;;;5072689;28;20519;-74
2022/08/05 11:19:52;;;;;;;0.50;0.30;;;29.60;98.90;;;;;;5072699;28;20435;-74
2022/08/05 11:22:38;;;;;;;0.50;0.30;;;30.00;99.90;;;;;;5072334;28;20447;-76
2022/08/05 11:25:27;;;;;;;0.87;0.87;;;29.70;96.90;;;;;;5072939;28;20446;-77
2022/08/05 11:27:54;;;;;;;0.50;0.30;;;30.10;96.80;;;;;;5072684;28;20447;-77
2022/08/05 11:30:23;;;;;;;0.50;0.30;;;30.40;93.20;;;;;;5072660;28;20547;-78
2022/08/05 11:32:50;;;;;;;0.50;0.30;;;30.40;97.90;;;;;;5072256;28;20487;-78
2022/08/05 11:36:02;;;;;;;0.50;0.37;;;30.10;95.80;;;;;;5072569;28;20527;-78
2022/08/05 11:38:53;;;;;;;0.50;0.30;;;29.50;95.20;;;;;;5036463;28;21033;-77
2022/08/05 11:41:22;;;;;;;0.50;0.30;;;29.70;96.80;;;;;;5072475;28;20464;-74
2022/08/05 11:43:54;;;;;;;0.50;0.40;;;29.80;95.20;;;;;;5072117;28;20456;-76
2022/08/05 11:46:27;;;;;;;0.50;0.30;;;29.60;93.80;;;;;;5062437;28;20539;-78
2022/08/05 11:48:55;;;;;;;0.50;0.30;;;28.80;97.50;;;;;;5072043;28;20539;-77
2022/08/05 11:51:22;;;;;;;0.50;0.30;;;28.60;99.90;;;;;;5072075;28;20474;-76
2022/08/05 11:53:50;;;;;;;0.70;0.70;;;28.60;99.90;;;;;;5071797;28;20666;-75
2022/08/05 11:56:17;;;;;;;0.50;0.30;;;28.50;99.90;;;;;;5072424;28;20476;-77
2022/08/05 11:58:46;;;;;;;0.50;0.30;;;29.20;99.90;;;;;;5071511;28;20470;-77
2022/08/05 12:01:14;;;;;;;0.50;0.30;;;30.00;99.90;;;;;;5070939;28;21156;-76
2022/08/05 12:03:43;;;;;;;0.50;0.40;;;30.70;93.90;;;;;;5071964;28;20437;-76
2022/08/05 12:06:11;;;;;;;0.50;0.30;;;31.20;91.20;;;;;;5071783;28;20450;-76
2022/08/05 12:08:43;;;;;;;3.33;0.60;;;31.00;89.20;;;;;;5072069;28;21008;-76
2022/08/05 12:11:13;;;;;;;0.50;0.40;;;31.00;83.50;;;;;;5071863;28;20820;-76
2022/08/05 12:13:40;;;;;;;0.57;0.50;;;31.30;82.00;;;;;;5071588;28;20460;-77
2022/08/05 12:16:08;;;;;;;0.50;0.30;;;31.50;81.10;;;;;;5072139;28;20864;-77
2022/08/05 12:18:36;;;;;;;0.50;0.30;;;31.00;85.60;;;;;;5072103;28;20535;-77
2022/08/05 12:21:12;;;;;;;0.50;0.30;;;30.10;81.10;;;;;;5071058;28;20475;-77
2022/08/05 12:23:39;;;;;;;0.50;0.30;;;30.50;87.00;;;;;;5072046;28;20515;-77
2022/08/05 12:26:06;;;;;;;0.50;0.30;;;31.00;87.20;;;;;;5071789;28;20476;-77
2022/08/05 12:28:34;;;;;;;0.50;0.30;;;31.30;84.90;;;;;;5071360;28;20484;-77
2022/08/05 12:31:01;;;;;;;0.50;0.30;;;31.40;86.70;;;;;;5071259;28;20452;-77
2022/08/05 12:33:28;;;;;;;0.50;0.30;;;31.50;81.70;;;;;;5070833;28;20518;-77
2022/08/05 12:35:56;;;;;;;0.50;0.30;;;30.60;78.00;;;;;;5071728;28;20531;-77
2022/08/05 12:38:25;;;;;;;0.50;0.30;;;30.30;82.40;;;;;;5071360;28;20493;-76
2022/08/05 12:40:53;;;;;;;0.50;0.30;;;30.20;82.40;;;;;;5071550;28;20458;-77
2022/08/05 12:43:20;;;;;;;0.50;0.30;;;30.30;83.10;;;;;;5071307;28;20443;-77
2022/08/05 12:45:51;;;;;;;0.67;0.67;;;29.80;81.80;;;;;;5071280;28;20493;-77
2022/08/05 12:48:18;;;;;;;0.50;0.40;;;29.40;82.70;;;;;;5071536;28;20523;-77
2022/08/05 12:51:12;;;;;;;0.50;0.30;;;28.70;84.50;;;;;;5070861;28;20547;-76
2022/08/05 12:53:44;;;;;;;0.50;0.33;;;27.90;91.60;;;;;;5072595;28;20472;-76
2022/08/05 12:56:19;;;;;;;0.50;0.50;;;27.00;94.00;;;;;;5071258;28;21005;-77
2022/08/05 12:58:45;;;;;;;0.50;0.30;;;26.20;98.20;;;;;;5070513;28;20523;-76
2022/08/05 13:01:15;;;;;;;0.50;0.30;;;26.20;99.90;;;;;;5070516;28;20464;-75
2022/08/05 13:03:42;;;;;;;0.50;0.30;;;26.30;99.90;;;;;;5071143;28;20433;-76